sensor_id;sensor_type;location;lat;lon;timestamp;temperature;humidity
30134;DHT22;16946;49.984;10.672;2023-08-06T00:00:08;16.40;99.90
30134;DHT22;16946;49.984;10.672;2023-08-06T00:00:38;16.30;99.90
30134;DHT22;16946;49.984;10.672;2023-08-06T00:01:09;16.30;99.90
30134;DHT22;16946;49.984;10.672;2023-08-06T00:01:40;16.30;99.90
30134;DHT22;16946;49.984;10.672;2023-08-06T00:02:10;16.20;99.90
30134;DHT22;16946;49.984;10.672;2023-08-06T00:02:41;16.10;99.90
30134;DHT22;16946;49.984;10.672;2023-08-06T00:03:11;16.10;99.90
30134;DHT22;16946;49.984;10.672;2023-08-06T00:03:42;16.00;99.90
30134;DHT22;16946;49.984;10.672;2023-08-06T00:04:12;16.00;99.90
30134;DHT22;16946;49.984;10.672;2023-08-06T00:04:43;16.00;99.90
30134;DHT22;16946;49.984;10.672;2023-08-06T00:05:14;15.90;99.90
30134;DHT22;16946;49.984;10.672;2023-08-06T00:05:48;15.90;99.90
30134;DHT22;16946;49.984;10.672;2023-08-06T00:06:18;15.90;99.90
30134;DHT22;16946;49.984;10.672;2023-08-06T00:06:49;15.80;99.90
30134;DHT22;16946;49.984;10.672;2023-08-06T00:07:19;15.80;99.90
30134;DHT22;16946;49.984;10.672;2023-08-06T00:07:50;15.80;99.90
30134;DHT22;16946;49.984;10.672;2023-08-06T00:08:21;15.70;99.90
30134;DHT22;16946;49.984;10.672;2023-08-06T00:08:52;15.70;99.90
30134;DHT22;16946;49.984;10.672;2023-08-06T00:09:22;15.70;99.90
30134;DHT22;16946;49.984;10.672;2023-08-06T00:09:53;15.70;99.90
30134;DHT22;16946;49.984;10.672;2023-08-06T00:10:23;15.70;99.90
30134;DHT22;16946;49.984;10.672;2023-08-06T00:10:54;15.70;99.90
30134;DHT22;16946;49.984;10.672;2023-08-06T00:11:24;15.60;99.90
30134;DHT22;16946;49.984;10.672;2023-08-06T00:11:55;15.60;99.90
30134;DHT22;16946;49.984;10.672;2023-08-06T00:12:25;15.70;99.90
30134;DHT22;16946;49.984;10.672;2023-08-06T00:12:56;15.70;99.90
30134;DHT22;16946;49.984;10.672;2023-08-06T00:13:26;15.80;99.90
30134;DHT22;16946;49.984;10.672;2023-08-06T00:13:57;15.90;99.90
30134;DHT22;16946;49.984;10.672;2023-08-06T00:14:28;16.00;99.90
30134;DHT22;16946;49.984;10.672;2023-08-06T00:14:58;16.00;99.90
30134;DHT22;16946;49.984;10.672;2023-08-06T00:15:29;16.00;99.90
30134;DHT22;16946;49.984;10.672;2023-08-06T00:16:12;16.10;99.90
30134;DHT22;16946;49.984;10.672;2023-08-06T00:16:44;16.20;99.90
30134;DHT22;16946;49.984;10.672;2023-08-06T00:17:15;16.20;99.90
30134;DHT22;16946;49.984;10.672;2023-08-06T00:17:46;16.20;99.90
30134;DHT22;16946;49.984;10.672;2023-08-06T00:18:16;16.20;99.90
30134;DHT22;16946;49.984;10.672;2023-08-06T00:18:47;16.20;99.90
30134;DHT22;16946;49.984;10.672;2023-08-06T00:19:17;16.30;99.90
30134;DHT22;16946;49.984;10.672;2023-08-06T00:19:48;16.30;99.90
30134;DHT22;16946;49.984;10.672;2023-08-06T00:20:18;16.30;99.90
30134;DHT22;16946;49.984;10.672;2023-08-06T00:20:49;16.30;99.90
30134;DHT22;16946;49.984;10.672;2023-08-06T00:21:19;16.30;99.90
30134;DHT22;16946;49.984;10.672;2023-08-06T00:21:50;16.20;99.90
30134;DHT22;16946;49.984;10.672;2023-08-06T00:22:21;16.20;99.90
30134;DHT22;16946;49.984;10.672;2023-08-06T00:22:51;16.20;99.90
30134;DHT22;16946;49.984;10.672;2023-08-06T00:23:22;16.20;99.90
30134;DHT22;16946;49.984;10.672;2023-08-06T00:23:52;16.20;99.90
30134;DHT22;16946;49.984;10.672;2023-08-06T00:24:23;16.20;99.90
30134;DHT22;16946;49.984;10.672;2023-08-06T00:24:53;16.10;99.90
30134;DHT22;16946;49.984;10.672;2023-08-06T00:25:28;16.10;99.90
30134;DHT22;16946;49.984;10.672;2023-08-06T00:25:58;16.10;99.90
30134;DHT22;16946;49.984;10.672;2023-08-06T00:26:29;16.00;99.90
30134;DHT22;16946;49.984;10.672;2023-08-06T00:26:59;16.00;99.90
30134;DHT22;16946;49.984;10.672;2023-08-06T00:27:30;16.10;99.90
30134;DHT22;16946;49.984;10.672;2023-08-06T00:28:00;16.10;99.90
30134;DHT22;16946;49.984;10.672;2023-08-06T00:28:31;16.10;99.90
30134;DHT22;16946;49.984;10.672;2023-08-06T00:29:02;16.10;99.90
30134;DHT22;16946;49.984;10.672;2023-08-06T00:29:32;16.20;99.90
30134;DHT22;16946;49.984;10.672;2023-08-06T00:30:03;16.20;99.90
30134;DHT22;16946;49.984;10.672;2023-08-06T00:30:34;16.20;99.90
30134;DHT22;16946;49.984;10.672;2023-08-06T00:31:04;16.20;99.90
30134;DHT22;16946;49.984;10.672;2023-08-06T00:31:35;16.30;99.90
30134;DHT22;16946;49.984;10.672;2023-08-06T00:32:05;16.30;99.90
30134;DHT22;16946;49.984;10.672;2023-08-06T00:32:36;16.30;99.90
30134;DHT22;16946;49.984;10.672;2023-08-06T00:33:07;16.30;99.90
30134;DHT22;16946;49.984;10.672;2023-08-06T00:33:37;16.20;99.90
30134;DHT22;16946;49.984;10.672;2023-08-06T00:34:08;16.20;99.90
30134;DHT22;16946;49.984;10.672;2023-08-06T00:34:38;16.10;99.90
30134;DHT22;16946;49.984;10.672;2023-08-06T00:35:09;16.10;99.90
30134;DHT22;16946;49.984;10.672;2023-08-06T00:35:40;16.10;99.90
30134;DHT22;16946;49.984;10.672;2023-08-06T00:36:10;16.10;99.90
30134;DHT22;16946;49.984;10.672;2023-08-06T00:36:41;16.10;99.90
30134;DHT22;16946;49.984;10.672;2023-08-06T00:37:11;16.10;99.90
30134;DHT22;16946;49.984;10.672;2023-08-06T00:37:42;16.10;99.90
30134;DHT22;16946;49.984;10.672;2023-08-06T00:38:12;16.10;99.90
30134;DHT22;16946;49.984;10.672;2023-08-06T00:38:43;16.10;99.90
30134;DHT22;16946;49.984;10.672;2023-08-06T00:39:13;16.00;99.90
30134;DHT22;16946;49.984;10.672;2023-08-06T00:39:44;16.00;99.90
30134;DHT22;16946;49.984;10.672;2023-08-06T00:40:15;15.90;99.90
30134;DHT22;16946;49.984;10.672;2023-08-06T00:40:45;15.90;99.90
30134;DHT22;16946;49.984;10.672;2023-08-06T00:41:16;15.90;99.90
30134;DHT22;16946;49.984;10.672;2023-08-06T00:41:46;15.80;99.90
30134;DHT22;16946;49.984;10.672;2023-08-06T00:42:17;15.80;99.90
30134;DHT22;16946;49.984;10.672;2023-08-06T00:42:51;15.80;99.90
30134;DHT22;16946;49.984;10.672;2023-08-06T00:43:21;15.70;99.90
30134;DHT22;16946;49.984;10.672;2023-08-06T00:43:52;15.70;99.90
30134;DHT22;16946;49.984;10.672;2023-08-06T00:44:22;15.70;99.90
30134;DHT22;16946;49.984;10.672;2023-08-06T00:44:53;15.70;99.90
30134;DHT22;16946;49.984;10.672;2023-08-06T00:45:24;15.60;99.90
30134;DHT22;16946;49.984;10.672;2023-08-06T00:45:55;15.60;99.90
30134;DHT22;16946;49.984;10.672;2023-08-06T00:46:29;15.60;99.90
30134;DHT22;16946;49.984;10.672;2023-08-06T00:47:00;15.60;99.90
30134;DHT22;16946;49.984;10.672;2023-08-06T00:47:31;15.70;99.90
30134;DHT22;16946;49.984;10.672;2023-08-06T00:48:03;15.70;99.90
30134;DHT22;16946;49.984;10.672;2023-08-06T00:48:35;15.70;99.90
30134;DHT22;16946;49.984;10.672;2023-08-06T00:49:06;15.70;99.90
30134;DHT22;16946;49.984;10.672;2023-08-06T00:49:37;15.70;99.90
30134;DHT22;16946;49.984;10.672;2023-08-06T00:50:08;15.70;99.90
30134;DHT22;16946;49.984;10.672;2023-08-06T00:50:38;15.70;99.90
30134;DHT22;16946;49.984;10.672;2023-08-06T00:51:10;15.70;99.90
30134;DHT22;16946;49.984;10.672;2023-08-06T00:51:42;15.70;99.90
30134;DHT22;16946;49.984;10.672;2023-08-06T00:52:13;15.70;99.90
30134;DHT22;16946;49.984;10.672;2023-08-06T00:52:44;15.80;99.90
30134;DHT22;16946;49.984;10.672;2023-08-06T00:53:15;15.80;99.90
30134;DHT22;16946;49.984;10.672;2023-08-06T00:53:46;15.90;99.90
30134;DHT22;16946;49.984;10.672;2023-08-06T00:54:17;15.90;99.90
30134;DHT22;16946;49.984;10.672;2023-08-06T00:54:48;16.00;99.90
30134;DHT22;16946;49.984;10.672;2023-08-06T00:55:19;15.90;99.90
30134;DHT22;16946;49.984;10.672;2023-08-06T00:55:50;16.00;99.90
30134;DHT22;16946;49.984;10.672;2023-08-06T00:56:21;16.00;99.90
30134;DHT22;16946;49.984;10.672;2023-08-06T00:56:51;15.90;99.90
30134;DHT22;16946;49.984;10.672;2023-08-06T00:57:24;16.00;99.90
30134;DHT22;16946;49.984;10.672;2023-08-06T00:57:56;15.90;99.90
30134;DHT22;16946;49.984;10.672;2023-08-06T00:58:27;15.90;99.90
30134;DHT22;16946;49.984;10.672;2023-08-06T00:58:58;15.80;99.90
30134;DHT22;16946;49.984;10.672;2023-08-06T00:59:30;15.80;99.90
30134;DHT22;16946;49.984;10.672;2023-08-06T01:00:01;15.80;99.90
30134;DHT22;16946;49.984;10.672;2023-08-06T01:00:32;15.70;99.90
30134;DHT22;16946;49.984;10.672;2023-08-06T01:01:03;15.70;99.90
30134;DHT22;16946;49.984;10.672;2023-08-06T01:01:33;15.70;99.90
30134;DHT22;16946;49.984;10.672;2023-08-06T01:02:04;15.70;99.90
30134;DHT22;16946;49.984;10.672;2023-08-06T01:02:35;15.70;99.90
30134;DHT22;16946;49.984;10.672;2023-08-06T01:03:05;15.70;99.90
30134;DHT22;16946;49.984;10.672;2023-08-06T01:03:36;15.70;99.90
30134;DHT22;16946;49.984;10.672;2023-08-06T01:04:07;15.60;99.90
30134;DHT22;16946;49.984;10.672;2023-08-06T01:04:37;15.60;99.90
30134;DHT22;16946;49.984;10.672;2023-08-06T01:05:08;15.60;99.90
30134;DHT22;16946;49.984;10.672;2023-08-06T01:05:39;15.50;99.90
30134;DHT22;16946;49.984;10.672;2023-08-06T01:06:09;15.60;99.90
30134;DHT22;16946;49.984;10.672;2023-08-06T01:07:03;15.50;99.90
30134;DHT22;16946;49.984;10.672;2023-08-06T01:07:51;15.50;99.90
30134;DHT22;16946;49.984;10.672;2023-08-06T01:09:11;15.60;99.90
30134;DHT22;16946;49.984;10.672;2023-08-06T01:10:40;15.60;99.90
30134;DHT22;16946;49.984;10.672;2023-08-06T01:11:59;15.60;99.90
30134;DHT22;16946;49.984;10.672;2023-08-06T01:13:32;15.70;99.90
30134;DHT22;16946;49.984;10.672;2023-08-06T01:15:29;15.70;99.90
30134;DHT22;16946;49.984;10.672;2023-08-06T01:16:03;15.70;99.90
30134;DHT22;16946;49.984;10.672;2023-08-06T01:16:35;15.70;99.90
30134;DHT22;16946;49.984;10.672;2023-08-06T01:17:07;15.80;99.90
30134;DHT22;16946;49.984;10.672;2023-08-06T01:17:39;15.80;99.90
30134;DHT22;16946;49.984;10.672;2023-08-06T01:18:10;15.90;99.90
30134;DHT22;16946;49.984;10.672;2023-08-06T01:18:41;15.90;99.90
30134;DHT22;16946;49.984;10.672;2023-08-06T01:19:17;15.90;99.90
30134;DHT22;16946;49.984;10.672;2023-08-06T01:19:48;15.90;99.90
30134;DHT22;16946;49.984;10.672;2023-08-06T01:20:19;15.90;99.90
30134;DHT22;16946;49.984;10.672;2023-08-06T01:20:49;15.90;99.90
30134;DHT22;16946;49.984;10.672;2023-08-06T01:21:20;15.80;99.90
30134;DHT22;16946;49.984;10.672;2023-08-06T01:21:50;15.80;99.90
30134;DHT22;16946;49.984;10.672;2023-08-06T01:22:21;15.80;99.90
30134;DHT22;16946;49.984;10.672;2023-08-06T01:22:52;15.80;99.90
30134;DHT22;16946;49.984;10.672;2023-08-06T01:23:22;15.70;99.90
30134;DHT22;16946;49.984;10.672;2023-08-06T01:23:53;15.70;99.90
30134;DHT22;16946;49.984;10.672;2023-08-06T01:24:24;15.80;99.90
30134;DHT22;16946;49.984;10.672;2023-08-06T01:24:55;15.80;99.90
30134;DHT22;16946;49.984;10.672;2023-08-06T01:26:37;15.90;99.90
30134;DHT22;16946;49.984;10.672;2023-08-06T01:28:01;15.90;99.90
30134;DHT22;16946;49.984;10.672;2023-08-06T01:28:11;15.80;99.90
30134;DHT22;16946;49.984;10.672;2023-08-06T01:28:59;15.80;99.90
30134;DHT22;16946;49.984;10.672;2023-08-06T01:29:37;15.80;99.90
30134;DHT22;16946;49.984;10.672;2023-08-06T01:30:16;15.80;99.90
30134;DHT22;16946;49.984;10.672;2023-08-06T01:30:48;15.70;99.90
30134;DHT22;16946;49.984;10.672;2023-08-06T01:31:24;15.70;99.90
30134;DHT22;16946;49.984;10.672;2023-08-06T01:31:57;15.60;99.90
30134;DHT22;16946;49.984;10.672;2023-08-06T01:32:31;15.60;99.90
30134;DHT22;16946;49.984;10.672;2023-08-06T01:33:04;15.50;99.90
30134;DHT22;16946;49.984;10.672;2023-08-06T01:33:38;15.40;99.90
30134;DHT22;16946;49.984;10.672;2023-08-06T01:34:22;15.40;99.90
30134;DHT22;16946;49.984;10.672;2023-08-06T01:34:54;15.40;99.90
30134;DHT22;16946;49.984;10.672;2023-08-06T01:35:27;15.50;99.90
30134;DHT22;16946;49.984;10.672;2023-08-06T01:35:59;15.60;99.90
30134;DHT22;16946;49.984;10.672;2023-08-06T01:36:30;15.50;99.90
30134;DHT22;16946;49.984;10.672;2023-08-06T01:37:01;15.60;99.90
30134;DHT22;16946;49.984;10.672;2023-08-06T01:37:32;15.50;99.90
30134;DHT22;16946;49.984;10.672;2023-08-06T01:38:04;15.60;99.90
30134;DHT22;16946;49.984;10.672;2023-08-06T01:38:34;15.60;99.90
30134;DHT22;16946;49.984;10.672;2023-08-06T01:39:05;15.70;99.90
30134;DHT22;16946;49.984;10.672;2023-08-06T01:39:36;15.70;99.90
30134;DHT22;16946;49.984;10.672;2023-08-06T01:40:11;15.70;99.90
30134;DHT22;16946;49.984;10.672;2023-08-06T01:40:44;15.70;99.90
30134;DHT22;16946;49.984;10.672;2023-08-06T01:41:14;15.70;99.90
30134;DHT22;16946;49.984;10.672;2023-08-06T01:41:45;15.70;99.90
30134;DHT22;16946;49.984;10.672;2023-08-06T01:42:15;15.80;99.90
30134;DHT22;16946;49.984;10.672;2023-08-06T01:42:46;15.70;99.90
30134;DHT22;16946;49.984;10.672;2023-08-06T01:43:16;15.70;99.90
30134;DHT22;16946;49.984;10.672;2023-08-06T01:43:47;15.70;99.90
30134;DHT22;16946;49.984;10.672;2023-08-06T01:44:18;15.80;99.90
30134;DHT22;16946;49.984;10.672;2023-08-06T01:44:49;15.70;99.90
30134;DHT22;16946;49.984;10.672;2023-08-06T01:45:19;15.70;99.90
30134;DHT22;16946;49.984;10.672;2023-08-06T01:45:50;15.70;99.90
30134;DHT22;16946;49.984;10.672;2023-08-06T01:46:20;15.70;99.90
30134;DHT22;16946;49.984;10.672;2023-08-06T01:46:51;15.70;99.90
30134;DHT22;16946;49.984;10.672;2023-08-06T01:47:21;15.70;99.90
30134;DHT22;16946;49.984;10.672;2023-08-06T01:47:52;15.70;99.90
30134;DHT22;16946;49.984;10.672;2023-08-06T01:48:22;15.70;99.90
30134;DHT22;16946;49.984;10.672;2023-08-06T01:48:53;15.70;99.90
30134;DHT22;16946;49.984;10.672;2023-08-06T01:49:23;15.70;99.90
30134;DHT22;16946;49.984;10.672;2023-08-06T01:49:54;15.60;99.90
30134;DHT22;16946;49.984;10.672;2023-08-06T01:50:25;15.60;99.90
30134;DHT22;16946;49.984;10.672;2023-08-06T01:50:55;15.50;99.90
30134;DHT22;16946;49.984;10.672;2023-08-06T01:51:26;15.40;99.90
30134;DHT22;16946;49.984;10.672;2023-08-06T01:51:56;15.30;99.90
30134;DHT22;16946;49.984;10.672;2023-08-06T01:52:27;15.20;99.90
30134;DHT22;16946;49.984;10.672;2023-08-06T01:52:58;15.10;99.90
30134;DHT22;16946;49.984;10.672;2023-08-06T01:53:28;15.10;99.90
30134;DHT22;16946;49.984;10.672;2023-08-06T01:53:59;15.10;99.90
30134;DHT22;16946;49.984;10.672;2023-08-06T01:54:29;15.00;99.90
30134;DHT22;16946;49.984;10.672;2023-08-06T01:55:00;15.10;99.90
30134;DHT22;16946;49.984;10.672;2023-08-06T01:55:30;15.10;99.90
30134;DHT22;16946;49.984;10.672;2023-08-06T01:56:01;15.10;99.90
30134;DHT22;16946;49.984;10.672;2023-08-06T01:56:32;15.10;99.90
30134;DHT22;16946;49.984;10.672;2023-08-06T01:57:02;15.10;99.90
30134;DHT22;16946;49.984;10.672;2023-08-06T01:57:33;15.10;99.90
30134;DHT22;16946;49.984;10.672;2023-08-06T01:58:04;15.10;99.90
30134;DHT22;16946;49.984;10.672;2023-08-06T01:58:34;15.10;99.90
30134;DHT22;16946;49.984;10.672;2023-08-06T01:59:05;15.20;99.90
30134;DHT22;16946;49.984;10.672;2023-08-06T01:59:35;15.20;99.90
30134;DHT22;16946;49.984;10.672;2023-08-06T02:00:06;15.20;99.90
30134;DHT22;16946;49.984;10.672;2023-08-06T02:00:37;15.30;99.90
30134;DHT22;16946;49.984;10.672;2023-08-06T02:01:07;15.30;99.90
30134;DHT22;16946;49.984;10.672;2023-08-06T02:01:38;15.30;99.90
30134;DHT22;16946;49.984;10.672;2023-08-06T02:02:09;15.40;99.90
30134;DHT22;16946;49.984;10.672;2023-08-06T02:02:39;15.40;99.90
30134;DHT22;16946;49.984;10.672;2023-08-06T02:03:11;15.40;99.90
30134;DHT22;16946;49.984;10.672;2023-08-06T02:03:42;15.40;99.90
30134;DHT22;16946;49.984;10.672;2023-08-06T02:04:12;15.40;99.90
30134;DHT22;16946;49.984;10.672;2023-08-06T02:04:43;15.40;99.90
30134;DHT22;16946;49.984;10.672;2023-08-06T02:05:13;15.50;99.90
30134;DHT22;16946;49.984;10.672;2023-08-06T02:05:44;15.50;99.90
30134;DHT22;16946;49.984;10.672;2023-08-06T02:06:16;15.50;99.90
30134;DHT22;16946;49.984;10.672;2023-08-06T02:06:46;15.40;99.90
30134;DHT22;16946;49.984;10.672;2023-08-06T02:07:17;15.30;99.90
30134;DHT22;16946;49.984;10.672;2023-08-06T02:07:47;15.30;99.90
30134;DHT22;16946;49.984;10.672;2023-08-06T02:08:18;15.30;99.90
30134;DHT22;16946;49.984;10.672;2023-08-06T02:08:50;15.30;99.90
30134;DHT22;16946;49.984;10.672;2023-08-06T02:09:20;15.20;99.90
30134;DHT22;16946;49.984;10.672;2023-08-06T02:09:51;15.20;99.90
30134;DHT22;16946;49.984;10.672;2023-08-06T02:10:21;15.20;99.90
30134;DHT22;16946;49.984;10.672;2023-08-06T02:10:52;15.20;99.90
30134;DHT22;16946;49.984;10.672;2023-08-06T02:11:24;15.20;99.90
30134;DHT22;16946;49.984;10.672;2023-08-06T02:11:54;15.20;99.90
30134;DHT22;16946;49.984;10.672;2023-08-06T02:12:25;15.20;99.90
30134;DHT22;16946;49.984;10.672;2023-08-06T02:12:55;15.10;99.90
30134;DHT22;16946;49.984;10.672;2023-08-06T02:13:26;15.10;99.90
30134;DHT22;16946;49.984;10.672;2023-08-06T02:13:56;15.10;99.90
30134;DHT22;16946;49.984;10.672;2023-08-06T02:14:27;15.10;99.90
30134;DHT22;16946;49.984;10.672;2023-08-06T02:14:57;15.00;99.90
30134;DHT22;16946;49.984;10.672;2023-08-06T02:15:28;15.00;99.90
30134;DHT22;16946;49.984;10.672;2023-08-06T02:15:58;15.00;99.90
30134;DHT22;16946;49.984;10.672;2023-08-06T02:16:29;15.00;99.90
30134;DHT22;16946;49.984;10.672;2023-08-06T02:16:59;15.00;99.90
30134;DHT22;16946;49.984;10.672;2023-08-06T02:17:30;15.10;99.90
30134;DHT22;16946;49.984;10.672;2023-08-06T02:18:00;15.20;99.90
30134;DHT22;16946;49.984;10.672;2023-08-06T02:18:31;15.20;99.90
30134;DHT22;16946;49.984;10.672;2023-08-06T02:19:01;15.30;99.90
30134;DHT22;16946;49.984;10.672;2023-08-06T02:19:32;15.30;99.90
30134;DHT22;16946;49.984;10.672;2023-08-06T02:20:03;15.30;99.90
30134;DHT22;16946;49.984;10.672;2023-08-06T02:20:33;15.30;99.90
30134;DHT22;16946;49.984;10.672;2023-08-06T02:21:04;15.30;99.90
30134;DHT22;16946;49.984;10.672;2023-08-06T02:21:34;15.30;99.90
30134;DHT22;16946;49.984;10.672;2023-08-06T02:22:05;15.20;99.90
30134;DHT22;16946;49.984;10.672;2023-08-06T02:22:36;15.30;99.90
30134;DHT22;16946;49.984;10.672;2023-08-06T02:23:06;15.30;99.90
30134;DHT22;16946;49.984;10.672;2023-08-06T02:23:37;15.40;99.90
30134;DHT22;16946;49.984;10.672;2023-08-06T02:24:07;15.40;99.90
30134;DHT22;16946;49.984;10.672;2023-08-06T02:24:38;15.40;99.90
30134;DHT22;16946;49.984;10.672;2023-08-06T02:25:08;15.50;99.90
30134;DHT22;16946;49.984;10.672;2023-08-06T02:25:39;15.50;99.90
30134;DHT22;16946;49.984;10.672;2023-08-06T02:26:10;15.50;99.90
30134;DHT22;16946;49.984;10.672;2023-08-06T02:26:40;15.60;99.90
30134;DHT22;16946;49.984;10.672;2023-08-06T02:27:11;15.60;99.90
30134;DHT22;16946;49.984;10.672;2023-08-06T02:27:41;15.60;99.90
30134;DHT22;16946;49.984;10.672;2023-08-06T02:28:12;15.60;99.90
30134;DHT22;16946;49.984;10.672;2023-08-06T02:28:42;15.50;99.90
30134;DHT22;16946;49.984;10.672;2023-08-06T02:29:13;15.40;99.90
30134;DHT22;16946;49.984;10.672;2023-08-06T02:29:43;15.40;99.90
30134;DHT22;16946;49.984;10.672;2023-08-06T02:30:15;15.30;99.90
30134;DHT22;16946;49.984;10.672;2023-08-06T02:30:52;15.30;99.90
30134;DHT22;16946;49.984;10.672;2023-08-06T02:31:22;15.20;99.90
30134;DHT22;16946;49.984;10.672;2023-08-06T02:31:53;15.20;99.90
30134;DHT22;16946;49.984;10.672;2023-08-06T02:32:24;15.20;99.90
30134;DHT22;16946;49.984;10.672;2023-08-06T02:32:54;15.20;99.90
30134;DHT22;16946;49.984;10.672;2023-08-06T02:33:25;15.10;99.90
30134;DHT22;16946;49.984;10.672;2023-08-06T02:33:56;15.10;99.90
30134;DHT22;16946;49.984;10.672;2023-08-06T02:34:27;15.10;99.90
30134;DHT22;16946;49.984;10.672;2023-08-06T02:34:58;15.00;99.90
30134;DHT22;16946;49.984;10.672;2023-08-06T02:35:28;15.00;99.90
30134;DHT22;16946;49.984;10.672;2023-08-06T02:36:02;15.10;99.90
30134;DHT22;16946;49.984;10.672;2023-08-06T02:36:36;15.10;99.90
30134;DHT22;16946;49.984;10.672;2023-08-06T02:37:07;15.10;99.90
30134;DHT22;16946;49.984;10.672;2023-08-06T02:37:38;15.10;99.90
30134;DHT22;16946;49.984;10.672;2023-08-06T02:38:08;15.10;99.90
30134;DHT22;16946;49.984;10.672;2023-08-06T02:38:39;15.10;99.90
30134;DHT22;16946;49.984;10.672;2023-08-06T02:39:09;15.20;99.90
30134;DHT22;16946;49.984;10.672;2023-08-06T02:39:40;15.10;99.90
30134;DHT22;16946;49.984;10.672;2023-08-06T02:40:11;15.10;99.90
30134;DHT22;16946;49.984;10.672;2023-08-06T02:40:45;15.20;99.90
30134;DHT22;16946;49.984;10.672;2023-08-06T02:41:16;15.20;99.90
30134;DHT22;16946;49.984;10.672;2023-08-06T02:41:47;15.20;99.90
30134;DHT22;16946;49.984;10.672;2023-08-06T02:42:18;15.20;99.90
30134;DHT22;16946;49.984;10.672;2023-08-06T02:42:48;15.20;99.90
30134;DHT22;16946;49.984;10.672;2023-08-06T02:43:19;15.10;99.90
30134;DHT22;16946;49.984;10.672;2023-08-06T02:43:49;15.20;99.90
30134;DHT22;16946;49.984;10.672;2023-08-06T02:44:20;15.10;99.90
30134;DHT22;16946;49.984;10.672;2023-08-06T02:44:50;15.10;99.90
30134;DHT22;16946;49.984;10.672;2023-08-06T02:45:21;15.20;99.90
30134;DHT22;16946;49.984;10.672;2023-08-06T02:45:51;15.20;99.90
30134;DHT22;16946;49.984;10.672;2023-08-06T02:46:22;15.20;99.90
30134;DHT22;16946;49.984;10.672;2023-08-06T02:46:52;15.20;99.90
30134;DHT22;16946;49.984;10.672;2023-08-06T02:47:23;15.20;99.90
30134;DHT22;16946;49.984;10.672;2023-08-06T02:47:54;15.10;99.90
30134;DHT22;16946;49.984;10.672;2023-08-06T02:48:25;15.20;99.90
30134;DHT22;16946;49.984;10.672;2023-08-06T02:48:55;15.20;99.90
30134;DHT22;16946;49.984;10.672;2023-08-06T02:49:26;15.30;99.90
30134;DHT22;16946;49.984;10.672;2023-08-06T02:49:56;15.40;99.90
30134;DHT22;16946;49.984;10.672;2023-08-06T02:50:27;15.30;99.90
30134;DHT22;16946;49.984;10.672;2023-08-06T02:50:58;15.30;99.90
30134;DHT22;16946;49.984;10.672;2023-08-06T02:51:29;15.30;99.90
30134;DHT22;16946;49.984;10.672;2023-08-06T02:52:00;15.20;99.90
30134;DHT22;16946;49.984;10.672;2023-08-06T02:52:30;15.20;99.90
30134;DHT22;16946;49.984;10.672;2023-08-06T02:53:01;15.20;99.90
30134;DHT22;16946;49.984;10.672;2023-08-06T02:53:31;15.10;99.90
30134;DHT22;16946;49.984;10.672;2023-08-06T02:54:02;15.10;99.90
30134;DHT22;16946;49.984;10.672;2023-08-06T02:54:33;15.10;99.90
30134;DHT22;16946;49.984;10.672;2023-08-06T02:55:03;15.10;99.90
30134;DHT22;16946;49.984;10.672;2023-08-06T02:55:35;15.20;99.90
30134;DHT22;16946;49.984;10.672;2023-08-06T02:56:05;15.20;99.90
30134;DHT22;16946;49.984;10.672;2023-08-06T02:56:36;15.20;99.90
30134;DHT22;16946;49.984;10.672;2023-08-06T02:57:06;15.20;99.90
30134;DHT22;16946;49.984;10.672;2023-08-06T02:57:37;15.20;99.90
30134;DHT22;16946;49.984;10.672;2023-08-06T02:58:07;15.20;99.90
30134;DHT22;16946;49.984;10.672;2023-08-06T02:58:38;15.20;99.90
30134;DHT22;16946;49.984;10.672;2023-08-06T02:59:09;15.20;99.90
30134;DHT22;16946;49.984;10.672;2023-08-06T02:59:39;15.10;99.90
30134;DHT22;16946;49.984;10.672;2023-08-06T03:00:10;15.10;99.90
30134;DHT22;16946;49.984;10.672;2023-08-06T03:00:42;15.10;99.90
30134;DHT22;16946;49.984;10.672;2023-08-06T03:01:13;15.00;99.90
30134;DHT22;16946;49.984;10.672;2023-08-06T03:01:44;15.00;99.90
30134;DHT22;16946;49.984;10.672;2023-08-06T03:02:15;15.00;99.90
30134;DHT22;16946;49.984;10.672;2023-08-06T03:02:45;15.00;99.90
30134;DHT22;16946;49.984;10.672;2023-08-06T03:03:16;15.00;99.90
30134;DHT22;16946;49.984;10.672;2023-08-06T03:03:46;15.00;99.90
30134;DHT22;16946;49.984;10.672;2023-08-06T03:04:17;14.90;99.90
30134;DHT22;16946;49.984;10.672;2023-08-06T03:04:48;15.00;99.90
30134;DHT22;16946;49.984;10.672;2023-08-06T03:05:19;15.00;99.90
30134;DHT22;16946;49.984;10.672;2023-08-06T03:05:53;15.00;99.90
30134;DHT22;16946;49.984;10.672;2023-08-06T03:06:24;14.90;99.90
30134;DHT22;16946;49.984;10.672;2023-08-06T03:06:54;14.90;99.90
30134;DHT22;16946;49.984;10.672;2023-08-06T03:07:25;14.90;99.90
30134;DHT22;16946;49.984;10.672;2023-08-06T03:07:55;14.80;99.90
30134;DHT22;16946;49.984;10.672;2023-08-06T03:08:26;14.80;99.90
30134;DHT22;16946;49.984;10.672;2023-08-06T03:08:57;14.80;99.90
30134;DHT22;16946;49.984;10.672;2023-08-06T03:09:27;14.80;99.90
30134;DHT22;16946;49.984;10.672;2023-08-06T03:09:58;14.80;99.90
30134;DHT22;16946;49.984;10.672;2023-08-06T03:10:28;14.70;99.90
30134;DHT22;16946;49.984;10.672;2023-08-06T03:10:59;14.70;99.90
30134;DHT22;16946;49.984;10.672;2023-08-06T03:11:29;14.70;99.90
30134;DHT22;16946;49.984;10.672;2023-08-06T03:12:00;14.70;99.90
30134;DHT22;16946;49.984;10.672;2023-08-06T03:12:30;14.70;99.90
30134;DHT22;16946;49.984;10.672;2023-08-06T03:13:01;14.70;99.90
30134;DHT22;16946;49.984;10.672;2023-08-06T03:13:31;14.70;99.90
30134;DHT22;16946;49.984;10.672;2023-08-06T03:14:02;14.70;99.90
30134;DHT22;16946;49.984;10.672;2023-08-06T03:14:32;14.70;99.90
30134;DHT22;16946;49.984;10.672;2023-08-06T03:15:03;14.60;99.90
30134;DHT22;16946;49.984;10.672;2023-08-06T03:15:34;14.60;99.90
30134;DHT22;16946;49.984;10.672;2023-08-06T03:16:05;14.60;99.90
30134;DHT22;16946;49.984;10.672;2023-08-06T03:16:36;14.60;99.90
30134;DHT22;16946;49.984;10.672;2023-08-06T03:17:06;14.50;99.90
30134;DHT22;16946;49.984;10.672;2023-08-06T03:17:37;14.60;99.90
30134;DHT22;16946;49.984;10.672;2023-08-06T03:18:08;14.70;99.90
30134;DHT22;16946;49.984;10.672;2023-08-06T03:18:38;14.80;99.90
30134;DHT22;16946;49.984;10.672;2023-08-06T03:19:09;14.90;99.90
30134;DHT22;16946;49.984;10.672;2023-08-06T03:19:39;14.90;99.90
30134;DHT22;16946;49.984;10.672;2023-08-06T03:20:10;14.90;99.90